sensor_id;sensor_type;location;lat;lon;timestamp;P1;durP1;ratioP1;P2;durP2;ratioP2
59442;SDS011;45247;47.466;19.004;2023-04-07T00:01:46;13.13;;;9.75;;
59442;SDS011;45247;47.466;19.004;2023-04-07T00:04:15;13.30;;;9.48;;
59442;SDS011;45247;47.466;19.004;2023-04-07T00:06:43;13.05;;;9.63;;
59442;SDS011;45247;47.466;19.004;2023-04-07T00:09:11;10.32;;;8.52;;
59442;SDS011;45247;47.466;19.004;2023-04-07T00:11:39;16.13;;;10.52;;
59442;SDS011;45247;47.466;19.004;2023-04-07T00:14:07;12.50;;;9.88;;
59442;SDS011;45247;47.466;19.004;2023-04-07T00:16:37;13.70;;;9.68;;
59442;SDS011;45247;47.466;19.004;2023-04-07T00:19:05;12.57;;;8.82;;
59442;SDS011;45247;47.466;19.004;2023-04-07T00:21:33;12.65;;;9.27;;
59442;SDS011;45247;47.466;19.004;2023-04-07T00:24:01;13.75;;;10.18;;
59442;SDS011;45247;47.466;19.004;2023-04-07T00:26:29;11.95;;;9.00;;
59442;SDS011;45247;47.466;19.004;2023-04-07T00:28:58;14.57;;;11.10;;
59442;SDS011;45247;47.466;19.004;2023-04-07T00:31:26;14.35;;;9.98;;
59442;SDS011;45247;47.466;19.004;2023-04-07T00:33:56;15.27;;;9.68;;
59442;SDS011;45247;47.466;19.004;2023-04-07T00:36:24;12.30;;;9.80;;
59442;SDS011;45247;47.466;19.004;2023-04-07T00:38:52;12.68;;;9.95;;
59442;SDS011;45247;47.466;19.004;2023-04-07T00:41:20;13.10;;;9.77;;
59442;SDS011;45247;47.466;19.004;2023-04-07T00:43:49;18.13;;;11.07;;
59442;SDS011;45247;47.466;19.004;2023-04-07T00:46:18;13.20;;;10.07;;
59442;SDS011;45247;47.466;19.004;2023-04-07T00:48:49;14.23;;;10.38;;
59442;SDS011;45247;47.466;19.004;2023-04-07T00:51:18;12.75;;;9.68;;
59442;SDS011;45247;47.466;19.004;2023-04-07T00:53:47;13.15;;;9.65;;
59442;SDS011;45247;47.466;19.004;2023-04-07T00:56:16;14.70;;;10.63;;
59442;SDS011;45247;47.466;19.004;2023-04-07T00:58:44;13.77;;;9.00;;
59442;SDS011;45247;47.466;19.004;2023-04-07T01:01:14;11.88;;;9.90;;
59442;SDS011;45247;47.466;19.004;2023-04-07T01:03:57;14.05;;;10.02;;
59442;SDS011;45247;47.466;19.004;2023-04-07T01:06:33;15.40;;;11.63;;
59442;SDS011;45247;47.466;19.004;2023-04-07T01:09:06;14.52;;;10.15;;
59442;SDS011;45247;47.466;19.004;2023-04-07T01:11:43;15.48;;;10.52;;
59442;SDS011;45247;47.466;19.004;2023-04-07T01:14:19;14.30;;;10.15;;
59442;SDS011;45247;47.466;19.004;2023-04-07T01:16:48;13.10;;;9.93;;
59442;SDS011;45247;47.466;19.004;2023-04-07T01:19:27;13.25;;;10.02;;
59442;SDS011;45247;47.466;19.004;2023-04-07T01:22:02;13.98;;;10.50;;
59442;SDS011;45247;47.466;19.004;2023-04-07T01:24:39;14.10;;;10.38;;
59442;SDS011;45247;47.466;19.004;2023-04-07T01:27:18;13.75;;;9.60;;
59442;SDS011;45247;47.466;19.004;2023-04-07T01:29:53;12.38;;;10.00;;
59442;SDS011;45247;47.466;19.004;2023-04-07T01:32:22;12.25;;;9.25;;
59442;SDS011;45247;47.466;19.004;2023-04-07T01:34:54;14.57;;;10.82;;
59442;SDS011;45247;47.466;19.004;2023-04-07T01:37:24;17.33;;;12.10;;
59442;SDS011;45247;47.466;19.004;2023-04-07T01:39:53;15.25;;;10.57;;
59442;SDS011;45247;47.466;19.004;2023-04-07T01:42:22;14.07;;;10.20;;
59442;SDS011;45247;47.466;19.004;2023-04-07T01:44:54;13.93;;;10.57;;
59442;SDS011;45247;47.466;19.004;2023-04-07T01:47:24;15.77;;;11.13;;
59442;SDS011;45247;47.466;19.004;2023-04-07T01:49:57;16.55;;;11.43;;
59442;SDS011;45247;47.466;19.004;2023-04-07T01:52:25;14.57;;;10.15;;
59442;SDS011;45247;47.466;19.004;2023-04-07T01:54:54;13.75;;;9.65;;
59442;SDS011;45247;47.466;19.004;2023-04-07T01:57:23;15.23;;;10.65;;
59442;SDS011;45247;47.466;19.004;2023-04-07T01:59:51;13.63;;;9.38;;
59442;SDS011;45247;47.466;19.004;2023-04-07T02:02:21;15.13;;;10.00;;
59442;SDS011;45247;47.466;19.004;2023-04-07T02:04:51;13.32;;;9.35;;
59442;SDS011;45247;47.466;19.004;2023-04-07T02:07:24;12.82;;;9.48;;
59442;SDS011;45247;47.466;19.004;2023-04-07T02:09:56;13.20;;;9.32;;
59442;SDS011;45247;47.466;19.004;2023-04-07T02:12:29;10.48;;;8.23;;
59442;SDS011;45247;47.466;19.004;2023-04-07T02:14:59;12.20;;;9.63;;
59442;SDS011;45247;47.466;19.004;2023-04-07T02:17:29;14.30;;;10.43;;
59442;SDS011;45247;47.466;19.004;2023-04-07T02:20:01;15.50;;;11.18;;
59442;SDS011;45247;47.466;19.004;2023-04-07T02:22:33;14.00;;;10.32;;
59442;SDS011;45247;47.466;19.004;2023-04-07T02:25:02;12.93;;;8.57;;
59442;SDS011;45247;47.466;19.004;2023-04-07T02:27:30;12.85;;;9.07;;
59442;SDS011;45247;47.466;19.004;2023-04-07T02:29:58;14.60;;;9.85;;
59442;SDS011;45247;47.466;19.004;2023-04-07T02:32:26;13.27;;;9.35;;
59442;SDS011;45247;47.466;19.004;2023-04-07T02:34:56;13.68;;;9.82;;
59442;SDS011;45247;47.466;19.004;2023-04-07T02:37:24;13.20;;;9.60;;
59442;SDS011;45247;47.466;19.004;2023-04-07T02:39:52;13.93;;;9.98;;
59442;SDS011;45247;47.466;19.004;2023-04-07T02:42:20;10.93;;;8.05;;
59442;SDS011;45247;47.466;19.004;2023-04-07T02:44:48;12.45;;;9.40;;
59442;SDS011;45247;47.466;19.004;2023-04-07T02:47:16;13.05;;;10.70;;
59442;SDS011;45247;47.466;19.004;2023-04-07T02:49:44;13.85;;;9.95;;
59442;SDS011;45247;47.466;19.004;2023-04-07T02:52:14;13.45;;;9.43;;
59442;SDS011;45247;47.466;19.004;2023-04-07T02:54:42;12.35;;;9.32;;
59442;SDS011;45247;47.466;19.004;2023-04-07T02:57:10;13.98;;;10.10;;
59442;SDS011;45247;47.466;19.004;2023-04-07T02:59:39;13.93;;;10.23;;
59442;SDS011;45247;47.466;19.004;2023-04-07T03:02:07;15.50;;;11.32;;
59442;SDS011;45247;47.466;19.004;2023-04-07T03:04:35;13.13;;;9.98;;
59442;SDS011;45247;47.466;19.004;2023-04-07T03:07:03;13.55;;;9.27;;
59442;SDS011;45247;47.466;19.004;2023-04-07T03:09:33;13.43;;;9.32;;
59442;SDS011;45247;47.466;19.004;2023-04-07T03:12:02;13.93;;;9.93;;
59442;SDS011;45247;47.466;19.004;2023-04-07T03:14:30;13.57;;;9.93;;
59442;SDS011;45247;47.466;19.004;2023-04-07T03:16:58;14.70;;;10.90;;
59442;SDS011;45247;47.466;19.004;2023-04-07T03:19:26;14.63;;;10.38;;
59442;SDS011;45247;47.466;19.004;2023-04-07T03:21:54;15.13;;;9.68;;
59442;SDS011;45247;47.466;19.004;2023-04-07T03:24:22;14.32;;;9.30;;
59442;SDS011;45247;47.466;19.004;2023-04-07T03:26:52;13.18;;;10.45;;
59442;SDS011;45247;47.466;19.004;2023-04-07T03:29:20;14.07;;;10.55;;
59442;SDS011;45247;47.466;19.004;2023-04-07T03:31:48;12.43;;;10.10;;
59442;SDS011;45247;47.466;19.004;2023-04-07T03:34:16;14.77;;;10.77;;
59442;SDS011;45247;47.466;19.004;2023-04-07T03:36:44;15.45;;;10.90;;
59442;SDS011;45247;47.466;19.004;2023-04-07T03:39:12;12.88;;;9.93;;
59442;SDS011;45247;47.466;19.004;2023-04-07T03:41:41;14.98;;;10.95;;
59442;SDS011;45247;47.466;19.004;2023-04-07T03:44:10;15.40;;;10.65;;
59442;SDS011;45247;47.466;19.004;2023-04-07T03:46:38;16.67;;;11.88;;
59442;SDS011;45247;47.466;19.004;2023-04-07T03:49:06;19.05;;;11.50;;
59442;SDS011;45247;47.466;19.004;2023-04-07T03:51:35;16.17;;;11.57;;
59442;SDS011;45247;47.466;19.004;2023-04-07T03:54:03;16.08;;;11.32;;
59442;SDS011;45247;47.466;19.004;2023-04-07T03:56:31;13.40;;;10.60;;
59442;SDS011;45247;47.466;19.004;2023-04-07T03:58:59;15.73;;;11.82;;
59442;SDS011;45247;47.466;19.004;2023-04-07T04:01:29;16.92;;;12.38;;
59442;SDS011;45247;47.466;19.004;2023-04-07T04:04:01;16.25;;;11.38;;
59442;SDS011;45247;47.466;19.004;2023-04-07T04:06:30;11.88;;;9.65;;
59442;SDS011;45247;47.466;19.004;2023-04-07T04:08:58;17.40;;;12.82;;
59442;SDS011;45247;47.466;19.004;2023-04-07T04:11:26;15.35;;;11.10;;
59442;SDS011;45247;47.466;19.004;2023-04-07T04:13:54;15.15;;;11.23;;
59442;SDS011;45247;47.466;19.004;2023-04-07T04:16:22;16.20;;;11.88;;
59442;SDS011;45247;47.466;19.004;2023-04-07T04:18:52;14.55;;;11.57;;
59442;SDS011;45247;47.466;19.004;2023-04-07T04:21:20;17.33;;;10.77;;
59442;SDS011;45247;47.466;19.004;2023-04-07T04:23:48;14.68;;;10.43;;
59442;SDS011;45247;47.466;19.004;2023-04-07T04:26:17;13.05;;;10.18;;
59442;SDS011;45247;47.466;19.004;2023-04-07T04:28:46;13.52;;;10.65;;
59442;SDS011;45247;47.466;19.004;2023-04-07T04:31:14;12.80;;;10.40;;
59442;SDS011;45247;47.466;19.004;2023-04-07T04:33:42;18.25;;;11.85;;
59442;SDS011;45247;47.466;19.004;2023-04-07T04:36:12;13.93;;;10.85;;
59442;SDS011;45247;47.466;19.004;2023-04-07T04:38:40;13.00;;;9.90;;
59442;SDS011;45247;47.466;19.004;2023-04-07T04:41:08;12.98;;;10.23;;
59442;SDS011;45247;47.466;19.004;2023-04-07T04:43:36;14.52;;;10.55;;
59442;SDS011;45247;47.466;19.004;2023-04-07T04:46:04;17.52;;;12.77;;
59442;SDS011;45247;47.466;19.004;2023-04-07T04:48:32;16.73;;;11.57;;
59442;SDS011;45247;47.466;19.004;2023-04-07T04:51:01;15.63;;;11.60;;
59442;SDS011;45247;47.466;19.004;2023-04-07T04:53:30;13.82;;;10.80;;
59442;SDS011;45247;47.466;19.004;2023-04-07T04:55:58;15.13;;;11.82;;
59442;SDS011;45247;47.466;19.004;2023-04-07T04:58:27;15.88;;;10.98;;
59442;SDS011;45247;47.466;19.004;2023-04-07T05:00:55;16.42;;;11.57;;
59442;SDS011;45247;47.466;19.004;2023-04-07T05:03:27;13.88;;;11.07;;
59442;SDS011;45247;47.466;19.004;2023-04-07T05:05:58;12.52;;;10.60;;
59442;SDS011;45247;47.466;19.004;2023-04-07T05:08:27;16.48;;;11.45;;
59442;SDS011;45247;47.466;19.004;2023-04-07T05:10:56;15.00;;;10.93;;
59442;SDS011;45247;47.466;19.004;2023-04-07T05:13:24;14.57;;;10.43;;
59442;SDS011;45247;47.466;19.004;2023-04-07T05:15:52;12.63;;;10.88;;
59442;SDS011;45247;47.466;19.004;2023-04-07T05:18:21;15.27;;;10.98;;
59442;SDS011;45247;47.466;19.004;2023-04-07T05:20:49;13.68;;;10.27;;
59442;SDS011;45247;47.466;19.004;2023-04-07T05:23:17;15.27;;;11.02;;
59442;SDS011;45247;47.466;19.004;2023-04-07T05:25:45;14.02;;;10.88;;
59442;SDS011;45247;47.466;19.004;2023-04-07T05:28:15;13.55;;;10.00;;
59442;SDS011;45247;47.466;19.004;2023-04-07T05:30:43;14.75;;;11.40;;
59442;SDS011;45247;47.466;19.004;2023-04-07T05:33:11;14.25;;;11.10;;
59442;SDS011;45247;47.466;19.004;2023-04-07T05:35:39;16.17;;;10.93;;
59442;SDS011;45247;47.466;19.004;2023-04-07T05:38:07;16.13;;;12.15;;
59442;SDS011;45247;47.466;19.004;2023-04-07T05:40:36;14.95;;;11.32;;
59442;SDS011;45247;47.466;19.004;2023-04-07T05:43:04;13.95;;;10.63;;
59442;SDS011;45247;47.466;19.004;2023-04-07T05:45:33;14.25;;;11.38;;
59442;SDS011;45247;47.466;19.004;2023-04-07T05:48:01;18.65;;;11.45;;
59442;SDS011;45247;47.466;19.004;2023-04-07T05:50:30;13.50;;;10.57;;
59442;SDS011;45247;47.466;19.004;2023-04-07T05:52:58;14.73;;;10.80;;
59442;SDS011;45247;47.466;19.004;2023-04-07T05:55:26;16.25;;;12.23;;
59442;SDS011;45247;47.466;19.004;2023-04-07T05:57:54;13.70;;;11.05;;
59442;SDS011;45247;47.466;19.004;2023-04-07T06:00:22;14.48;;;11.10;;
59442;SDS011;45247;47.466;19.004;2023-04-07T06:02:52;15.75;;;11.52;;
59442;SDS011;45247;47.466;19.004;2023-04-07T06:05:21;15.63;;;11.43;;
59442;SDS011;45247;47.466;19.004;2023-04-07T06:07:49;14.82;;;12.07;;
59442;SDS011;45247;47.466;19.004;2023-04-07T06:10:17;14.32;;;11.00;;
59442;SDS011;45247;47.466;19.004;2023-04-07T06:12:45;14.02;;;11.55;;
59442;SDS011;45247;47.466;19.004;2023-04-07T06:15:13;15.48;;;12.05;;
59442;SDS011;45247;47.466;19.004;2023-04-07T06:17:42;17.23;;;12.63;;
59442;SDS011;45247;47.466;19.004;2023-04-07T06:20:12;16.45;;;12.32;;
59442;SDS011;45247;47.466;19.004;2023-04-07T06:22:40;14.80;;;11.25;;
59442;SDS011;45247;47.466;19.004;2023-04-07T06:25:08;16.75;;;12.60;;
59442;SDS011;45247;47.466;19.004;2023-04-07T06:27:37;17.10;;;12.65;;
59442;SDS011;45247;47.466;19.004;2023-04-07T06:30:05;17.33;;;11.75;;
59442;SDS011;45247;47.466;19.004;2023-04-07T06:32:34;15.32;;;12.43;;
59442;SDS011;45247;47.466;19.004;2023-04-07T06:35:03;14.63;;;11.88;;
59442;SDS011;45247;47.466;19.004;2023-04-07T06:37:33;17.10;;;12.07;;
59442;SDS011;45247;47.466;19.004;2023-04-07T06:40:02;19.13;;;13.23;;
59442;SDS011;45247;47.466;19.004;2023-04-07T06:42:30;18.00;;;13.55;;
59442;SDS011;45247;47.466;19.004;2023-04-07T06:44:58;17.52;;;12.20;;
59442;SDS011;45247;47.466;19.004;2023-04-07T06:47:26;19.58;;;13.20;;
59442;SDS011;45247;47.466;19.004;2023-04-07T06:49:55;17.50;;;12.82;;
59442;SDS011;45247;47.466;19.004;2023-04-07T06:52:23;15.50;;;12.20;;
59442;SDS011;45247;47.466;19.004;2023-04-07T06:54:52;17.30;;;13.02;;
59442;SDS011;45247;47.466;19.004;2023-04-07T06:57:21;17.52;;;13.20;;
59442;SDS011;45247;47.466;19.004;2023-04-07T06:59:49;18.02;;;12.73;;
59442;SDS011;45247;47.466;19.004;2023-04-07T07:02:17;16.70;;;12.77;;
59442;SDS011;45247;47.466;19.004;2023-04-07T07:04:45;17.83;;;13.90;;
59442;SDS011;45247;47.466;19.004;2023-04-07T07:07:14;15.88;;;13.35;;
59442;SDS011;45247;47.466;19.004;2023-04-07T07:09:42;19.75;;;14.07;;
59442;SDS011;45247;47.466;19.004;2023-04-07T07:12:11;17.30;;;13.57;;
59442;SDS011;45247;47.466;19.004;2023-04-07T07:14:40;18.60;;;13.30;;
59442;SDS011;45247;47.466;19.004;2023-04-07T07:17:08;19.20;;;13.20;;
59442;SDS011;45247;47.466;19.004;2023-04-07T07:19:36;17.75;;;13.38;;
59442;SDS011;45247;47.466;19.004;2023-04-07T07:22:04;19.80;;;14.00;;
59442;SDS011;45247;47.466;19.004;2023-04-07T07:24:32;19.23;;;14.23;;
59442;SDS011;45247;47.466;19.004;2023-04-07T07:27:01;20.05;;;13.73;;
59442;SDS011;45247;47.466;19.004;2023-04-07T07:29:30;21.90;;;16.58;;
59442;SDS011;45247;47.466;19.004;2023-04-07T07:31:58;21.10;;;15.45;;
59442;SDS011;45247;47.466;19.004;2023-04-07T07:34:26;17.70;;;14.63;;
59442;SDS011;45247;47.466;19.004;2023-04-07T07:36:54;19.27;;;14.75;;
59442;SDS011;45247;47.466;19.004;2023-04-07T07:39:23;18.33;;;14.38;;
59442;SDS011;45247;47.466;19.004;2023-04-07T07:41:51;19.23;;;14.60;;
59442;SDS011;45247;47.466;19.004;2023-04-07T07:44:19;18.67;;;15.35;;
59442;SDS011;45247;47.466;19.004;2023-04-07T07:46:49;21.10;;;14.90;;
59442;SDS011;45247;47.466;19.004;2023-04-07T07:49:18;18.27;;;13.75;;
59442;SDS011;45247;47.466;19.004;2023-04-07T07:51:46;20.25;;;14.98;;
59442;SDS011;45247;47.466;19.004;2023-04-07T07:54:14;20.63;;;15.50;;
59442;SDS011;45247;47.466;19.004;2023-04-07T07:56:42;19.20;;;15.25;;
59442;SDS011;45247;47.466;19.004;2023-04-07T07:59:11;20.77;;;15.13;;
59442;SDS011;45247;47.466;19.004;2023-04-07T08:01:41;18.27;;;14.95;;
59442;SDS011;45247;47.466;19.004;2023-04-07T08:04:10;18.73;;;14.38;;
59442;SDS011;45247;47.466;19.004;2023-04-07T08:06:39;17.45;;;13.18;;
59442;SDS011;45247;47.466;19.004;2023-04-07T08:09:08;15.88;;;13.05;;
59442;SDS011;45247;47.466;19.004;2023-04-07T08:11:36;15.98;;;12.57;;
59442;SDS011;45247;47.466;19.004;2023-04-07T08:14:04;16.95;;;13.48;;
59442;SDS011;45247;47.466;19.004;2023-04-07T08:16:35;17.33;;;13.13;;
59442;SDS011;45247;47.466;19.004;2023-04-07T08:19:03;14.25;;;11.43;;
59442;SDS011;45247;47.466;19.004;2023-04-07T08:21:33;15.90;;;12.70;;
59442;SDS011;45247;47.466;19.004;2023-04-07T08:24:01;16.50;;;13.63;;
59442;SDS011;45247;47.466;19.004;2023-04-07T08:26:29;18.83;;;14.70;;
59442;SDS011;45247;47.466;19.004;2023-04-07T08:28:58;15.48;;;12.55;;
59442;SDS011;45247;47.466;19.004;2023-04-07T08:31:26;17.92;;;14.27;;
59442;SDS011;45247;47.466;19.004;2023-04-07T08:33:56;18.35;;;13.73;;
59442;SDS011;45247;47.466;19.004;2023-04-07T08:36:25;16.65;;;13.57;;
59442;SDS011;45247;47.466;19.004;2023-04-07T08:38:55;20.75;;;14.88;;
59442;SDS011;45247;47.466;19.004;2023-04-07T08:41:26;20.70;;;14.30;;
59442;SDS011;45247;47.466;19.004;2023-04-07T08:46:25;17.92;;;12.90;;
59442;SDS011;45247;47.466;19.004;2023-04-07T08:48:54;18.05;;;13.13;;
59442;SDS011;45247;47.466;19.004;2023-04-07T08:51:26;15.18;;;12.82;;
59442;SDS011;45247;47.466;19.004;2023-04-07T08:53:59;16.52;;;13.35;;
59442;SDS011;45247;47.466;19.004;2023-04-07T08:56:32;16.63;;;13.18;;
59442;SDS011;45247;47.466;19.004;2023-04-07T08:59:02;18.52;;;14.88;;
59442;SDS011;45247;47.466;19.004;2023-04-07T09:01:34;17.67;;;14.00;;
59442;SDS011;45247;47.466;19.004;2023-04-07T09:04:03;15.82;;;13.57;;
59442;SDS011;45247;47.466;19.004;2023-04-07T09:06:33;15.93;;;12.60;;
59442;SDS011;45247;47.466;19.004;2023-04-07T09:09:03;16.23;;;13.20;;
59442;SDS011;45247;47.466;19.004;2023-04-07T09:11:33;18.27;;;14.13;;
59442;SDS011;45247;47.466;19.004;2023-04-07T09:14:03;17.75;;;13.32;;
59442;SDS011;45247;47.466;19.004;2023-04-07T09:16:31;14.55;;;12.00;;
59442;SDS011;45247;47.466;19.004;2023-04-07T09:18:59;17.00;;;13.43;;
59442;SDS011;45247;47.466;19.004;2023-04-07T09:21:29;17.83;;;13.45;;
59442;SDS011;45247;47.466;19.004;2023-04-07T09:24:23;16.95;;;14.27;;
59442;SDS011;45247;47.466;19.004;2023-04-07T09:27:08;17.65;;;12.95;;
59442;SDS011;45247;47.466;19.004;2023-04-07T09:29:41;14.30;;;11.90;;
59442;SDS011;45247;47.466;19.004;2023-04-07T09:32:11;19.17;;;14.05;;
59442;SDS011;45247;47.466;19.004;2023-04-07T09:34:40;17.90;;;13.90;;
59442;SDS011;45247;47.466;19.004;2023-04-07T09:37:08;16.23;;;13.10;;
59442;SDS011;45247;47.466;19.004;2023-04-07T09:39:50;16.23;;;13.48;;
59442;SDS011;45247;47.466;19.004;2023-04-07T09:42:19;14.20;;;11.75;;
59442;SDS011;45247;47.466;19.004;2023-04-07T09:44:47;17.48;;;12.90;;
59442;SDS011;45247;47.466;19.004;2023-04-07T09:47:16;17.85;;;13.38;;
59442;SDS011;45247;47.466;19.004;2023-04-07T09:49:48;18.42;;;13.80;;
59442;SDS011;45247;47.466;19.004;2023-04-07T09:52:21;14.80;;;12.05;;
59442;SDS011;45247;47.466;19.004;2023-04-07T09:55:11;16.10;;;12.90;;
59442;SDS011;45247;47.466;19.004;2023-04-07T09:57:40;15.43;;;12.50;;
59442;SDS011;45247;47.466;19.004;2023-04-07T10:00:10;15.60;;;12.73;;
59442;SDS011;45247;47.466;19.004;2023-04-07T10:02:39;19.33;;;13.15;;
59442;SDS011;45247;47.466;19.004;2023-04-07T10:05:08;15.55;;;12.48;;
59442;SDS011;45247;47.466;19.004;2023-04-07T10:07:36;16.33;;;13.18;;
59442;SDS011;45247;47.466;19.004;2023-04-07T10:10:13;16.95;;;13.57;;
59442;SDS011;45247;47.466;19.004;2023-04-07T10:12:41;16.95;;;13.32;;
59442;SDS011;45247;47.466;19.004;2023-04-07T10:15:11;17.15;;;14.15;;
59442;SDS011;45247;47.466;19.004;2023-04-07T10:17:42;15.57;;;13.55;;
59442;SDS011;45247;47.466;19.004;2023-04-07T10:20:15;16.80;;;13.35;;
59442;SDS011;45247;47.466;19.004;2023-04-07T10:22:44;17.45;;;13.27;;
59442;SDS011;45247;47.466;19.004;2023-04-07T10:25:17;16.10;;;12.50;;
59442;SDS011;45247;47.466;19.004;2023-04-07T10:27:48;19.17;;;12.98;;
59442;SDS011;45247;47.466;19.004;2023-04-07T10:30:19;17.05;;;13.35;;
59442;SDS011;45247;47.466;19.004;2023-04-07T10:32:52;17.63;;;14.27;;
59442;SDS011;45247;47.466;19.004;2023-04-07T10:35:21;15.02;;;12.80;;
59442;SDS011;45247;47.466;19.004;2023-04-07T10:40:38;13.88;;;12.32;;
59442;SDS011;45247;47.466;19.004;2023-04-07T10:43:07;15.13;;;12.20;;
59442;SDS011;45247;47.466;19.004;2023-04-07T10:45:52;15.30;;;12.57;;
59442;SDS011;45247;47.466;19.004;2023-04-07T10:48:26;15.00;;;12.25;;
59442;SDS011;45247;47.466;19.004;2023-04-07T10:57:06;14.63;;;11.38;;
59442;SDS011;45247;47.466;19.004;2023-04-07T10:59:38;15.15;;;11.40;;
59442;SDS011;45247;47.466;19.004;2023-04-07T11:02:30;14.82;;;11.32;;
59442;SDS011;45247;47.466;19.004;2023-04-07T11:05:00;14.38;;;11.90;;
59442;SDS011;45247;47.466;19.004;2023-04-07T11:07:42;14.40;;;10.82;;
59442;SDS011;45247;47.466;19.004;2023-04-07T11:10:12;13.77;;;11.27;;
59442;SDS011;45247;47.466;19.004;2023-04-07T11:12:42;13.73;;;11.35;;
59442;SDS011;45247;47.466;19.004;2023-04-07T11:15:18;12.90;;;11.07;;
59442;SDS011;45247;47.466;19.004;2023-04-07T11:20:50;15.02;;;11.60;;
59442;SDS011;45247;47.466;19.004;2023-04-07T11:23:20;13.85;;;10.82;;
59442;SDS011;45247;47.466;19.004;2023-04-07T11:25:51;15.68;;;12.20;;
59442;SDS011;45247;47.466;19.004;2023-04-07T11:28:27;18.02;;;13.30;;
59442;SDS011;45247;47.466;19.004;2023-04-07T11:30:55;15.77;;;13.25;;
59442;SDS011;45247;47.466;19.004;2023-04-07T11:33:26;15.85;;;12.48;;
59442;SDS011;45247;47.466;19.004;2023-04-07T11:35:57;16.45;;;12.73;;
59442;SDS011;45247;47.466;19.004;2023-04-07T11:38:26;15.77;;;13.45;;
59442;SDS011;45247;47.466;19.004;2023-04-07T11:40:56;17.40;;;13.52;;
59442;SDS011;45247;47.466;19.004;2023-04-07T11:43:25;19.25;;;12.48;;
59442;SDS011;45247;47.466;19.004;2023-04-07T11:46:05;16.38;;;13.05;;
59442;SDS011;45247;47.466;19.004;2023-04-07T11:48:34;16.40;;;13.57;;
59442;SDS011;45247;47.466;19.004;2023-04-07T11:51:04;18.55;;;13.70;;
59442;SDS011;45247;47.466;19.004;2023-04-07T11:53:33;15.77;;;12.60;;
59442;SDS011;45247;47.466;19.004;2023-04-07T11:56:04;16.58;;;14.15;;
59442;SDS011;45247;47.466;19.004;2023-04-07T11:58:36;17.17;;;13.68;;
59442;SDS011;45247;47.466;19.004;2023-04-07T12:01:05;16.27;;;13.57;;
59442;SDS011;45247;47.466;19.004;2023-04-07T12:03:35;15.52;;;13.07;;
59442;SDS011;45247;47.466;19.004;2023-04-07T12:06:04;16.67;;;14.40;;
59442;SDS011;45247;47.466;19.004;2023-04-07T12:08:35;15.73;;;12.65;;
59442;SDS011;45247;47.466;19.004;2023-04-07T12:11:04;18.65;;;13.30;;
59442;SDS011;45247;47.466;19.004;2023-04-07T12:13:33;16.75;;;13.45;;
59442;SDS011;45247;47.466;19.004;2023-04-07T12:16:06;15.60;;;13.07;;
59442;SDS011;45247;47.466;19.004;2023-04-07T12:18:34;16.92;;;13.77;;
59442;SDS011;45247;47.466;19.004;2023-04-07T12:21:02;17.70;;;13.68;;
59442;SDS011;45247;47.466;19.004;2023-04-07T12:23:31;15.50;;;13.60;;
59442;SDS011;45247;47.466;19.004;2023-04-07T12:25:59;16.50;;;13.82;;
59442;SDS011;45247;47.466;19.004;2023-04-07T12:28:27;15.52;;;11.98;;
59442;SDS011;45247;47.466;19.004;2023-04-07T12:30:55;15.98;;;12.88;;
59442;SDS011;45247;47.466;19.004;2023-04-07T12:33:25;15.85;;;13.80;;
59442;SDS011;45247;47.466;19.004;2023-04-07T12:35:53;14.90;;;13.02;;
59442;SDS011;45247;47.466;19.004;2023-04-07T12:38:21;15.02;;;12.10;;
59442;SDS011;45247;47.466;19.004;2023-04-07T12:40:50;16.58;;;13.07;;
59442;SDS011;45247;47.466;19.004;2023-04-07T12:43:18;16.08;;;12.93;;
59442;SDS011;45247;47.466;19.004;2023-04-07T12:45:46;14.65;;;12.77;;
59442;SDS011;45247;47.466;19.004;2023-04-07T12:48:14;15.60;;;12.52;;
59442;SDS011;45247;47.466;19.004;2023-04-07T12:50:45;14.57;;;11.77;;
59442;SDS011;45247;47.466;19.004;2023-04-07T12:53:13;18.25;;;12.38;;
59442;SDS011;45247;47.466;19.004;2023-04-07T12:55:41;15.50;;;13.07;;
59442;SDS011;45247;47.466;19.004;2023-04-07T12:58:10;19.38;;;13.18;;
59442;SDS011;45247;47.466;19.004;2023-04-07T13:00:38;16.23;;;12.98;;
59442;SDS011;45247;47.466;19.004;2023-04-07T13:03:07;15.93;;;12.68;;
59442;SDS011;45247;47.466;19.004;2023-04-07T13:05:35;15.18;;;12.60;;
59442;SDS011;45247;47.466;19.004;2023-04-07T13:08:05;16.70;;;13.02;;
59442;SDS011;45247;47.466;19.004;2023-04-07T13:10:33;16.83;;;13.25;;
59442;SDS011;45247;47.466;19.004;2023-04-07T13:13:01;16.08;;;12.70;;
59442;SDS011;45247;47.466;19.004;2023-04-07T13:15:29;17.80;;;13.90;;
59442;SDS011;45247;47.466;19.004;2023-04-07T13:17:57;17.60;;;13.57;;
59442;SDS011;45247;47.466;19.004;2023-04-07T13:20:26;19.60;;;14.02;;
59442;SDS011;45247;47.466;19.004;2023-04-07T13:22:55;16.45;;;13.65;;
59442;SDS011;45247;47.466;19.004;2023-04-07T13:25:36;17.08;;;13.77;;
59442;SDS011;45247;47.466;19.004;2023-04-07T13:28:04;17.52;;;14.38;;
59442;SDS011;45247;47.466;19.004;2023-04-07T13:30:33;16.00;;;13.73;;
59442;SDS011;45247;47.466;19.004;2023-04-07T13:33:01;17.20;;;13.85;;
59442;SDS011;45247;47.466;19.004;2023-04-07T13:35:30;17.98;;;13.60;;
59442;SDS011;45247;47.466;19.004;2023-04-07T13:38:01;21.35;;;13.73;;
59442;SDS011;45247;47.466;19.004;2023-04-07T13:40:29;16.95;;;13.48;;
59442;SDS011;45247;47.466;19.004;2023-04-07T13:42:59;16.05;;;13.27;;
59442;SDS011;45247;47.466;19.004;2023-04-07T13:45:27;16.30;;;13.15;;
59442;SDS011;45247;47.466;19.004;2023-04-07T13:47:55;17.05;;;13.60;;
59442;SDS011;45247;47.466;19.004;2023-04-07T13:50:23;16.92;;;13.70;;
59442;SDS011;45247;47.466;19.004;2023-04-07T13:52:51;18.58;;;13.40;;
59442;SDS011;45247;47.466;19.004;2023-04-07T13:55:19;18.65;;;13.75;;
59442;SDS011;45247;47.466;19.004;2023-04-07T13:57:48;17.30;;;13.75;;
59442;SDS011;45247;47.466;19.004;2023-04-07T14:00:17;15.68;;;12.45;;
59442;SDS011;45247;47.466;19.004;2023-04-07T14:02:46;17.85;;;13.20;;
59442;SDS011;45247;47.466;19.004;2023-04-07T14:05:15;15.57;;;12.77;;
59442;SDS011;45247;47.466;19.004;2023-04-07T14:07:43;16.58;;;13.10;;
59442;SDS011;45247;47.466;19.004;2023-04-07T14:10:11;16.30;;;12.32;;
59442;SDS011;45247;47.466;19.004;2023-04-07T14:12:39;18.45;;;13.60;;
59442;SDS011;45247;47.466;19.004;2023-04-07T14:15:08;16.85;;;13.80;;
59442;SDS011;45247;47.466;19.004;2023-04-07T14:17:38;16.02;;;13.32;;
59442;SDS011;45247;47.466;19.004;2023-04-07T14:20:06;16.20;;;13.13;;
59442;SDS011;45247;47.466;19.004;2023-04-07T14:22:35;15.98;;;12.85;;
59442;SDS011;45247;47.466;19.004;2023-04-07T14:25:04;18.33;;;13.63;;
59442;SDS011;45247;47.466;19.004;2023-04-07T14:27:32;17.45;;;13.40;;
59442;SDS011;45247;47.466;19.004;2023-04-07T14:30:01;17.17;;;13.35;;
59442;SDS011;45247;47.466;19.004;2023-04-07T14:32:29;17.40;;;13.13;;
59442;SDS011;45247;47.466;19.004;2023-04-07T14:35:00;16.92;;;12.50;;
59442;SDS011;45247;47.466;19.004;2023-04-07T14:37:28;17.70;;;14.15;;
59442;SDS011;45247;47.466;19.004;2023-04-07T14:39:56;16.58;;;13.10;;